Time;durP1;ratioP1;P1;durP2;ratioP2;P2;SDS_P1;SDS_P2;PMS_P1;PMS_P2;Temp;Humidity;BMP_temperature;BMP_pressure;BME280_temperature;BME280_humidity;BME280_pressure;Samples;Min_cycle;Max_cycle;Signal;HPM_P1;HPM_P2
2023/12/19 00:01:50;;;;;;;32.67;29.93;;;;;;;;;;4991614;28;20686;-77
2023/12/19 00:04:17;;;;;;;40.27;36.77;;;;;;;;;;4992231;28;20431;-77
2023/12/19 00:06:44;;;;;;;41.50;37.42;;;;;;;;;;4992014;28;20532;-77
2023/12/19 00:09:13;;;;;;;34.40;31.52;;;;;;;;;;4992257;28;20209;-77
2023/12/19 00:11:40;;;;;;;44.70;40.53;;;;;;;;;;4991698;28;20682;-77
2023/12/19 00:14:08;;;;;;;44.53;40.60;;;;;;;;;;4992012;28;20912;-77
2023/12/19 00:16:35;;;;;;;34.77;32.30;;;;;;;;;;4991905;28;20737;-77
2023/12/19 00:19:02;;;;;;;44.07;40.27;;;;;;;;;;4991277;28;20920;-77
2023/12/19 00:21:29;;;;;;;46.10;41.80;;;;;;;;;;4991836;28;21099;-77
2023/12/19 00:23:56;;;;;;;58.15;53.85;;;;;;;;;;4992187;28;20237;-77
2023/12/19 00:26:24;;;;;;;65.60;60.53;;;;;;;;;;4996930;28;20284;-77
2023/12/19 00:28:52;;;;;;;56.37;52.27;;;;;;;;;;5011837;28;20205;-77
2023/12/19 00:31:20;;;;;;;54.72;50.70;;;;;;;;;;5010820;28;20452;-77
2023/12/19 00:33:47;;;;;;;62.03;56.70;;;;;;;;;;5011004;28;20697;-77
2023/12/19 00:36:18;;;;;;;59.17;54.10;;;;;;;;;;5011041;28;20229;-77
2023/12/19 00:38:45;;;;;;;61.85;56.75;;;;;;;;;;5011763;28;20255;-78
2023/12/19 00:41:12;;;;;;;57.83;53.60;;;;;;;;;;5010792;28;20658;-77
2023/12/19 00:43:41;;;;;;;52.17;48.60;;;;;;;;;;5011461;28;20957;-78
2023/12/19 00:46:08;;;;;;;68.13;62.83;;;;;;;;;;5011440;28;20305;-78
2023/12/19 00:48:35;;;;;;;60.00;55.63;;;;;;;;;;5011547;28;20210;-78
2023/12/19 00:51:02;;;;;;;68.90;63.55;;;;;;;;;;5010902;28;20237;-79
2023/12/19 00:53:30;;;;;;;71.70;66.97;;;;;;;;;;5011223;28;20384;-78
2023/12/19 00:55:57;;;;;;;68.43;62.97;;;;;;;;;;5011175;28;20448;-78
2023/12/19 00:58:24;;;;;;;63.65;58.95;;;;;;;;;;5011303;28;20282;-78
2023/12/19 01:00:52;;;;;;;56.20;52.60;;;;;;;;;;5010689;28;20209;-77
2023/12/19 01:03:19;;;;;;;63.53;58.72;;;;;;;;;;5011099;28;20210;-77
2023/12/19 01:05:46;;;;;;;68.47;62.72;;;;;;;;;;5011237;28;20232;-78
2023/12/19 01:08:13;;;;;;;58.65;54.03;;;;;;;;;;5011419;28;20210;-78
2023/12/19 01:10:41;;;;;;;69.90;64.07;;;;;;;;;;5011103;28;20562;-78
2023/12/19 01:13:08;;;;;;;66.57;61.17;;;;;;;;;;5011416;28;20209;-78
2023/12/19 01:15:35;;;;;;;64.70;59.60;;;;;;;;;;5011424;28;20315;-78
2023/12/19 01:18:03;;;;;;;58.03;54.53;;;;;;;;;;5011028;28;20229;-78
2023/12/19 01:20:30;;;;;;;80.63;75.15;;;;;;;;;;5010716;28;20217;-78
2023/12/19 01:22:57;;;;;;;73.47;69.10;;;;;;;;;;5011207;28;20272;-78
2023/12/19 01:25:24;;;;;;;82.67;77.07;;;;;;;;;;5011407;28;20259;-78
2023/12/19 01:27:51;;;;;;;88.65;82.38;;;;;;;;;;5011485;28;20468;-78
2023/12/19 01:30:18;;;;;;;84.32;79.22;;;;;;;;;;5011399;28;20240;-78
2023/12/19 01:32:45;;;;;;;72.68;68.47;;;;;;;;;;5011201;28;20210;-78
2023/12/19 01:35:13;;;;;;;76.10;70.80;;;;;;;;;;5011094;28;20827;-78
2023/12/19 01:37:40;;;;;;;81.15;75.68;;;;;;;;;;5011556;28;20233;-78
2023/12/19 01:40:08;;;;;;;79.32;73.57;;;;;;;;;;5012011;28;20213;-78
2023/12/19 01:42:35;;;;;;;75.50;70.60;;;;;;;;;;5011615;28;20356;-78
2023/12/19 01:45:09;;;;;;;70.00;65.30;;;;;;;;;;5014867;28;20448;-78
2023/12/19 01:47:36;;;;;;;64.77;61.37;;;;;;;;;;5016021;28;20235;-78
2023/12/19 01:50:04;;;;;;;70.18;65.95;;;;;;;;;;5016395;28;20470;-78
2023/12/19 01:52:32;;;;;;;69.00;64.65;;;;;;;;;;5015682;28;20213;-78
2023/12/19 01:55:00;;;;;;;71.33;66.30;;;;;;;;;;5016192;28;20226;-78
2023/12/19 01:57:27;;;;;;;65.32;60.67;;;;;;;;;;5016724;28;20458;-78
2023/12/19 01:59:54;;;;;;;66.03;61.25;;;;;;;;;;5016987;28;20209;-78
2023/12/19 02:02:21;;;;;;;64.00;59.65;;;;;;;;;;5016173;28;20210;-78
2023/12/19 02:04:49;;;;;;;60.28;56.78;;;;;;;;;;5017635;28;20205;-79
2023/12/19 02:07:16;;;;;;;63.28;58.40;;;;;;;;;;5016547;28;20275;-78
2023/12/19 02:09:44;;;;;;;60.88;56.58;;;;;;;;;;5016061;28;20205;-80
2023/12/19 02:12:12;;;;;;;62.85;58.00;;;;;;;;;;5015329;28;20239;-78
2023/12/19 02:14:39;;;;;;;61.33;57.08;;;;;;;;;;5015398;28;20312;-79
2023/12/19 02:17:07;;;;;;;64.47;59.90;;;;;;;;;;5015992;28;20635;-78
2023/12/19 02:19:34;;;;;;;60.65;56.80;;;;;;;;;;5014113;28;20223;-80
2023/12/19 02:22:00;;;;;;;52.13;49.28;;;;;;;;;;5015141;28;20205;-78
2023/12/19 02:24:29;;;;;;;50.47;47.78;;;;;;;;;;5015299;28;20206;-79
2023/12/19 02:26:56;;;;;;;61.42;57.08;;;;;;;;;;5015587;28;20589;-78
2023/12/19 02:29:23;;;;;;;64.00;58.63;;;;;;;;;;5016255;28;20209;-78
2023/12/19 02:31:50;;;;;;;58.40;54.53;;;;;;;;;;5015105;28;20209;-79
2023/12/19 02:34:17;;;;;;;60.53;56.20;;;;;;;;;;5015375;28;20827;-78
2023/12/19 02:36:44;;;;;;;50.90;47.78;;;;;;;;;;5014870;28;20232;-78
2023/12/19 02:39:11;;;;;;;58.47;54.72;;;;;;;;;;5014761;28;20214;-79
2023/12/19 02:41:39;;;;;;;55.85;52.40;;;;;;;;;;5014417;28;20619;-79
2023/12/19 02:44:06;;;;;;;51.38;48.25;;;;;;;;;;5015205;28;20239;-78
2023/12/19 02:46:33;;;;;;;58.60;54.85;;;;;;;;;;5014403;28;20222;-78
2023/12/19 02:49:01;;;;;;;56.95;53.08;;;;;;;;;;5014699;28;20287;-79
2023/12/19 02:51:29;;;;;;;60.67;56.55;;;;;;;;;;5014389;28;20210;-78
2023/12/19 02:53:56;;;;;;;62.15;58.53;;;;;;;;;;5015101;28;20246;-79
2023/12/19 02:56:23;;;;;;;63.08;58.88;;;;;;;;;;5013811;28;20225;-79
2023/12/19 02:58:52;;;;;;;54.95;52.00;;;;;;;;;;4999037;28;20618;-78
2023/12/19 03:01:19;;;;;;;62.72;58.47;;;;;;;;;;4995268;28;20217;-79
2023/12/19 03:03:46;;;;;;;63.90;59.90;;;;;;;;;;4996137;28;20221;-78
2023/12/19 03:06:14;;;;;;;69.50;64.63;;;;;;;;;;4995693;28;20252;-78
2023/12/19 03:08:45;;;;;;;62.83;58.63;;;;;;;;;;4996724;28;20435;-78
2023/12/19 03:11:12;;;;;;;75.35;70.35;;;;;;;;;;5003060;28;20232;-78
2023/12/19 03:13:38;;;;;;;66.55;62.85;;;;;;;;;;5015726;28;20732;-78
2023/12/19 03:16:07;;;;;;;76.22;71.68;;;;;;;;;;5015857;28;20319;-79
2023/12/19 03:18:34;;;;;;;77.68;73.18;;;;;;;;;;5015533;28;20201;-79
2023/12/19 03:21:01;;;;;;;82.10;76.97;;;;;;;;;;5013975;28;20221;-78
2023/12/19 03:23:28;;;;;;;79.55;74.07;;;;;;;;;;5014925;28;20205;-78
2023/12/19 03:25:55;;;;;;;84.27;78.30;;;;;;;;;;5014156;28;20340;-79
2023/12/19 03:28:22;;;;;;;82.90;77.30;;;;;;;;;;5014600;28;20453;-79
2023/12/19 03:30:50;;;;;;;82.17;77.20;;;;;;;;;;5013929;28;20522;-78
2023/12/19 03:33:18;;;;;;;80.20;75.47;;;;;;;;;;5014632;28;20448;-78
2023/12/19 03:35:45;;;;;;;75.25;71.20;;;;;;;;;;5014126;28;20488;-78
2023/12/19 03:38:12;;;;;;;78.00;72.57;;;;;;;;;;5014068;28;20217;-78
2023/12/19 03:40:39;;;;;;;81.10;75.80;;;;;;;;;;5014044;28;20506;-78
2023/12/19 03:43:08;;;;;;;75.17;70.67;;;;;;;;;;5013951;28;20461;-78
2023/12/19 03:45:35;;;;;;;70.77;66.83;;;;;;;;;;5013992;28;20498;-78
2023/12/19 03:48:03;;;;;;;75.03;70.68;;;;;;;;;;5013907;28;20473;-78
2023/12/19 03:50:31;;;;;;;75.25;70.15;;;;;;;;;;5012961;28;20678;-78
2023/12/19 03:52:58;;;;;;;78.23;73.33;;;;;;;;;;5013711;28;20732;-78
2023/12/19 03:55:25;;;;;;;69.13;65.07;;;;;;;;;;5013098;28;21291;-78
2023/12/19 03:57:52;;;;;;;71.93;67.63;;;;;;;;;;5013493;28;20772;-78
2023/12/19 04:00:19;;;;;;;76.20;71.00;;;;;;;;;;5011720;28;20214;-78
2023/12/19 04:02:46;;;;;;;77.20;72.07;;;;;;;;;;5012756;28;20452;-79
2023/12/19 04:05:13;;;;;;;81.93;76.50;;;;;;;;;;5012917;28;20498;-78
2023/12/19 04:07:41;;;;;;;82.10;76.82;;;;;;;;;;5012030;28;20397;-78
2023/12/19 04:10:09;;;;;;;83.35;78.10;;;;;;;;;;5003555;28;20616;-78
2023/12/19 04:12:36;;;;;;;117.97;107.93;;;;;;;;;;4992690;28;20221;-78
2023/12/19 04:15:03;;;;;;;84.53;79.15;;;;;;;;;;4993000;28;20563;-78
2023/12/19 04:17:30;;;;;;;93.80;87.27;;;;;;;;;;4992752;28;20234;-78
2023/12/19 04:19:57;;;;;;;126.95;115.20;;;;;;;;;;4993091;28;20432;-78
2023/12/19 04:22:25;;;;;;;80.18;74.43;;;;;;;;;;4992876;28;20203;-78
2023/12/19 04:24:53;;;;;;;78.97;74.30;;;;;;;;;;4993176;28;20895;-78
2023/12/19 04:27:20;;;;;;;87.03;81.82;;;;;;;;;;4993290;28;20520;-78
2023/12/19 04:29:46;;;;;;;82.07;77.27;;;;;;;;;;4992814;28;20218;-78
2023/12/19 04:32:13;;;;;;;74.50;70.15;;;;;;;;;;4991886;28;20438;-78
2023/12/19 04:34:41;;;;;;;71.85;67.63;;;;;;;;;;4992721;28;20229;-79
2023/12/19 04:37:08;;;;;;;69.00;64.60;;;;;;;;;;4992637;28;20226;-78
2023/12/19 04:39:35;;;;;;;72.20;68.23;;;;;;;;;;4992429;28;20206;-78
2023/12/19 04:42:06;;;;;;;79.90;75.18;;;;;;;;;;4992044;28;20450;-78
2023/12/19 04:44:34;;;;;;;79.43;74.13;;;;;;;;;;4992086;28;20202;-78
2023/12/19 04:47:00;;;;;;;77.53;72.43;;;;;;;;;;4992997;28;20238;-78
2023/12/19 04:49:28;;;;;;;75.20;70.50;;;;;;;;;;4992674;28;20210;-78
2023/12/19 04:51:55;;;;;;;71.30;66.60;;;;;;;;;;4992544;28;20514;-78
2023/12/19 04:54:22;;;;;;;74.45;69.25;;;;;;;;;;4992407;28;20670;-78
2023/12/19 04:56:50;;;;;;;73.03;67.85;;;;;;;;;;4993111;28;20627;-78
2023/12/19 04:59:19;;;;;;;73.32;68.40;;;;;;;;;;5003041;28;20237;-78
2023/12/19 05:01:46;;;;;;;72.63;67.43;;;;;;;;;;5011670;28;20215;-78
2023/12/19 05:04:13;;;;;;;78.18;73.00;;;;;;;;;;5012305;28;20213;-78
2023/12/19 05:06:40;;;;;;;69.30;64.97;;;;;;;;;;5011975;28;20225;-78
2023/12/19 05:09:08;;;;;;;75.22;70.22;;;;;;;;;;5012213;28;20723;-78
2023/12/19 05:11:34;;;;;;;68.30;64.10;;;;;;;;;;5011780;28;20251;-79
2023/12/19 05:14:02;;;;;;;67.68;63.15;;;;;;;;;;5012355;28;20681;-78
2023/12/19 05:16:30;;;;;;;63.10;59.45;;;;;;;;;;5012259;28;20243;-78
2023/12/19 05:18:57;;;;;;;73.57;68.38;;;;;;;;;;5013040;28;20275;-78
2023/12/19 05:21:24;;;;;;;65.27;61.57;;;;;;;;;;5016085;28;20288;-79
2023/12/19 05:23:51;;;;;;;69.03;64.93;;;;;;;;;;5016313;28;20440;-78
2023/12/19 05:26:18;;;;;;;73.00;68.17;;;;;;;;;;5016944;28;20221;-78
2023/12/19 05:28:46;;;;;;;69.57;65.37;;;;;;;;;;5016509;28;20513;-78
2023/12/19 05:31:14;;;;;;;66.32;62.58;;;;;;;;;;5016226;28;21150;-79
2023/12/19 05:33:43;;;;;;;68.97;64.65;;;;;;;;;;5016581;28;20205;-78
2023/12/19 05:36:12;;;;;;;73.47;69.40;;;;;;;;;;5015557;28;20693;-78
2023/12/19 05:38:39;;;;;;;69.17;64.90;;;;;;;;;;5016209;28;20225;-78
2023/12/19 05:41:06;;;;;;;75.60;70.50;;;;;;;;;;5014720;28;20500;-78
2023/12/19 05:43:33;;;;;;;69.23;64.93;;;;;;;;;;5015754;28;20498;-78
2023/12/19 05:46:01;;;;;;;73.70;69.27;;;;;;;;;;5015645;28;20798;-77
2023/12/19 05:48:28;;;;;;;75.05;69.80;;;;;;;;;;5016106;28;20423;-78
2023/12/19 05:50:56;;;;;;;66.50;62.40;;;;;;;;;;5014744;28;20209;-78
2023/12/19 05:53:23;;;;;;;67.40;62.97;;;;;;;;;;5015338;28;20747;-78
2023/12/19 05:55:51;;;;;;;67.53;63.88;;;;;;;;;;5015010;28;20538;-78
2023/12/19 05:58:18;;;;;;;69.20;65.05;;;;;;;;;;5015218;28;20284;-78
2023/12/19 06:00:45;;;;;;;70.63;65.57;;;;;;;;;;5014773;28;20205;-78
2023/12/19 06:03:12;;;;;;;70.27;65.57;;;;;;;;;;5015104;28;20812;-78
2023/12/19 06:05:39;;;;;;;67.93;63.72;;;;;;;;;;5015507;28;20448;-79
2023/12/19 06:08:08;;;;;;;62.73;59.10;;;;;;;;;;5012448;28;20206;-78
2023/12/19 06:10:35;;;;;;;71.22;66.05;;;;;;;;;;5007111;28;20448;-79
2023/12/19 06:13:02;;;;;;;66.07;61.03;;;;;;;;;;5015495;28;20213;-78
2023/12/19 06:15:29;;;;;;;63.53;58.90;;;;;;;;;;5015350;28;20286;-78
2023/12/19 06:17:56;;;;;;;64.35;59.88;;;;;;;;;;5014710;28;20443;-78
2023/12/19 06:20:23;;;;;;;67.03;62.13;;;;;;;;;;5015046;28;20252;-79
2023/12/19 06:22:50;;;;;;;63.63;59.10;;;;;;;;;;5015871;28;20252;-78
2023/12/19 06:25:19;;;;;;;70.07;65.78;;;;;;;;;;5015081;28;20444;-78
2023/12/19 06:27:46;;;;;;;68.80;64.10;;;;;;;;;;5015243;28;20264;-78
2023/12/19 06:30:13;;;;;;;66.73;62.33;;;;;;;;;;5014703;28;20527;-78
2023/12/19 06:32:42;;;;;;;65.40;61.33;;;;;;;;;;5014549;28;20457;-78
2023/12/19 06:35:09;;;;;;;71.55;67.20;;;;;;;;;;5014884;28;20221;-78
2023/12/19 06:37:36;;;;;;;75.10;70.50;;;;;;;;;;5015081;28;20237;-78
2023/12/19 06:40:03;;;;;;;74.10;69.10;;;;;;;;;;5014471;28;20210;-79
2023/12/19 06:42:32;;;;;;;79.72;74.03;;;;;;;;;;5013898;28;20272;-78
2023/12/19 06:45:00;;;;;;;76.57;71.68;;;;;;;;;;5014014;28;20259;-78
2023/12/19 06:47:27;;;;;;;80.05;74.93;;;;;;;;;;5013938;28;20255;-78
2023/12/19 06:49:54;;;;;;;79.18;74.22;;;;;;;;;;5014365;28;20933;-78
2023/12/19 06:52:21;;;;;;;79.97;74.50;;;;;;;;;;5013452;28;20291;-78
2023/12/19 06:54:48;;;;;;;80.60;75.03;;;;;;;;;;5013883;28;20452;-78
2023/12/19 06:57:15;;;;;;;79.35;74.57;;;;;;;;;;5014022;28;20309;-78
2023/12/19 06:59:44;;;;;;;79.33;74.13;;;;;;;;;;5013976;28;20237;-78
2023/12/19 07:02:11;;;;;;;79.93;74.93;;;;;;;;;;5012904;28;20443;-78
2023/12/19 07:04:38;;;;;;;77.18;72.93;;;;;;;;;;5011833;28;20503;-78
2023/12/19 07:07:05;;;;;;;72.53;68.13;;;;;;;;;;5012541;28;20226;-78
2023/12/19 07:09:32;;;;;;;79.00;74.20;;;;;;;;;;5011644;28;20207;-78
2023/12/19 07:11:59;;;;;;;75.95;71.25;;;;;;;;;;5012300;28;20481;-77
2023/12/19 07:14:28;;;;;;;76.20;71.20;;;;;;;;;;5013463;28;20201;-77
2023/12/19 07:16:56;;;;;;;73.72;68.70;;;;;;;;;;5016396;28;20225;-79
2023/12/19 07:19:23;;;;;;;74.50;69.90;;;;;;;;;;5014099;28;20213;-79
2023/12/19 07:21:51;;;;;;;83.23;75.93;;;;;;;;;;5017006;28;20453;-79
2023/12/19 07:24:18;;;;;;;78.05;73.28;;;;;;;;;;5014154;28;20432;-79
2023/12/19 07:26:45;;;;;;;76.50;71.90;;;;;;;;;;4997494;28;20234;-79
2023/12/19 07:29:12;;;;;;;78.05;73.05;;;;;;;;;;4997380;28;20499;-79
2023/12/19 07:31:39;;;;;;;78.07;73.53;;;;;;;;;;4996466;28;20202;-78
2023/12/19 07:34:08;;;;;;;76.40;72.20;;;;;;;;;;4997530;28;20249;-79
2023/12/19 07:36:35;;;;;;;79.20;74.70;;;;;;;;;;4997061;28;20493;-79
2023/12/19 07:39:03;;;;;;;77.32;72.72;;;;;;;;;;4998458;28;20214;-79
2023/12/19 07:41:31;;;;;;;76.50;71.90;;;;;;;;;;5012617;28;20216;-79
2023/12/19 07:43:58;;;;;;;76.40;72.00;;;;;;;;;;5002279;28;20542;-79
2023/12/19 07:46:25;;;;;;;77.80;72.95;;;;;;;;;;4997022;28;20484;-79
2023/12/19 07:48:52;;;;;;;72.70;68.80;;;;;;;;;;4996620;28;20214;-79
2023/12/19 07:51:23;;;;;;;75.43;71.17;;;;;;;;;;4993204;28;20268;-80
2023/12/19 07:53:49;;;;;;;83.60;78.60;;;;;;;;;;4997659;28;20468;-79
2023/12/19 07:56:17;;;;;;;82.30;76.90;;;;;;;;;;4996614;28;20493;-79
2023/12/19 07:58:44;;;;;;;80.50;76.07;;;;;;;;;;5007938;28;20438;-79
2023/12/19 08:01:12;;;;;;;82.82;77.85;;;;;;;;;;5016833;28;20460;-79
2023/12/19 08:03:39;;;;;;;72.97;68.93;;;;;;;;;;5017142;28;20209;-79
2023/12/19 08:06:06;;;;;;;74.93;70.38;;;;;;;;;;5017288;28;20435;-79
2023/12/19 08:08:35;;;;;;;74.80;69.80;;;;;;;;;;5017923;28;20214;-79
2023/12/19 08:11:02;;;;;;;78.03;73.37;;;;;;;;;;5015758;28;20205;-79
2023/12/19 08:13:29;;;;;;;81.78;76.93;;;;;;;;;;5016727;28;20444;-80
2023/12/19 08:15:56;;;;;;;88.13;82.38;;;;;;;;;;5017466;28;20701;-79
2023/12/19 08:18:23;;;;;;;78.73;74.03;;;;;;;;;;5015071;28;20566;-79
2023/12/19 08:20:50;;;;;;;80.85;76.05;;;;;;;;;;5013775;28;20508;-79
2023/12/19 08:23:17;;;;;;;83.00;78.10;;;;;;;;;;5015541;28;20288;-80
2023/12/19 08:25:45;;;;;;;84.47;78.87;;;;;;;;;;5017568;28;20496;-80
2023/12/19 08:28:12;;;;;;;82.03;76.90;;;;;;;;;;5018618;28;20441;-77
2023/12/19 08:30:40;;;;;;;78.18;73.45;;;;;;;;;;5019093;28;20209;-82
2023/12/19 08:33:07;;;;;;;82.53;77.03;;;;;;;;;;5009432;28;20226;-80
2023/12/19 08:35:34;;;;;;;82.97;77.32;;;;;;;;;;5003167;28;20214;-80
2023/12/19 08:38:02;;;;;;;78.73;73.73;;;;;;;;;;5001414;28;20234;-80
2023/12/19 08:40:29;;;;;;;86.43;81.05;;;;;;;;;;5000630;28;20517;-80
2023/12/19 08:42:57;;;;;;;84.63;79.43;;;;;;;;;;4999927;28;20576;-80
2023/12/19 08:45:26;;;;;;;78.90;74.20;;;;;;;;;;5004920;28;20474;-80
2023/12/19 08:47:54;;;;;;;73.50;69.00;;;;;;;;;;5001025;28;20505;-83
2023/12/19 08:50:21;;;;;;;80.10;75.28;;;;;;;;;;5000688;28;20461;-79
2023/12/19 08:52:48;;;;;;;80.33;75.43;;;;;;;;;;5000346;28;20229;-79
2023/12/19 08:55:15;;;;;;;79.10;74.20;;;;;;;;;;4999877;28;20472;-79
2023/12/19 08:57:43;;;;;;;83.32;77.82;;;;;;;;;;4999259;28;20547;-79
2023/12/19 09:00:15;;;;;;;86.83;81.37;;;;;;;;;;5007343;28;20805;-79
2023/12/19 09:02:43;;;;;;;74.73;69.60;;;;;;;;;;5000136;28;20490;-79
2023/12/19 09:05:10;;;;;;;81.23;76.47;;;;;;;;;;5009458;28;20914;-80
2023/12/19 09:07:37;;;;;;;79.77;74.53;;;;;;;;;;5010643;28;20796;-80
2023/12/19 09:10:05;;;;;;;82.68;76.78;;;;;;;;;;5019862;28;20444;-79
2023/12/19 09:12:32;;;;;;;84.03;78.50;;;;;;;;;;5020210;28;20241;-77
2023/12/19 09:14:59;;;;;;;81.50;76.70;;;;;;;;;;5018417;28;20437;-78
2023/12/19 09:17:27;;;;;;;81.97;76.63;;;;;;;;;;5015277;28;20983;-80
2023/12/19 09:19:55;;;;;;;83.72;78.05;;;;;;;;;;5001659;28;20315;-79
2023/12/19 09:22:22;;;;;;;84.07;78.95;;;;;;;;;;5013904;28;20237;-80
2023/12/19 09:24:49;;;;;;;77.57;72.72;;;;;;;;;;5020220;28;20213;-79
2023/12/19 09:27:17;;;;;;;83.32;77.88;;;;;;;;;;5004434;28;20234;-80
2023/12/19 09:29:44;;;;;;;84.33;79.00;;;;;;;;;;5000837;28;20317;-79
2023/12/19 09:32:12;;;;;;;78.03;73.13;;;;;;;;;;5000705;28;20427;-80
2023/12/19 09:34:40;;;;;;;84.20;79.07;;;;;;;;;;5001378;28;20462;-80
2023/12/19 09:37:07;;;;;;;84.10;78.80;;;;;;;;;;5000490;28;20485;-80
2023/12/19 09:39:34;;;;;;;82.60;77.80;;;;;;;;;;5001162;28;20217;-80
2023/12/19 09:42:02;;;;;;;80.67;75.90;;;;;;;;;;4997966;28;20453;-80
2023/12/19 09:44:30;;;;;;;78.67;73.40;;;;;;;;;;4998954;28;20528;-81
2023/12/19 09:46:57;;;;;;;74.80;70.37;;;;;;;;;;4999883;28;20437;-80
2023/12/19 09:49:24;;;;;;;82.03;76.67;;;;;;;;;;4999075;28;20535;-80
2023/12/19 09:51:54;;;;;;;77.90;72.83;;;;;;;;;;5000205;28;20457;-80
2023/12/19 09:54:21;;;;;;;81.57;75.97;;;;;;;;;;4999882;28;20449;-80
2023/12/19 09:56:48;;;;;;;80.30;75.10;;;;;;;;;;5000825;28;20227;-80
2023/12/19 09:59:17;;;;;;;81.33;75.93;;;;;;;;;;5000462;28;20531;-80
2023/12/19 10:01:44;;;;;;;78.80;73.93;;;;;;;;;;5000017;28;20460;-80
2023/12/19 10:04:14;;;;;;;75.73;70.97;;;;;;;;;;5001020;28;20416;-80
2023/12/19 10:06:41;;;;;;;85.50;79.85;;;;;;;;;;5003024;28;20562;-80
2023/12/19 10:09:15;;;;;;;87.67;81.27;;;;;;;;;;5004248;28;20609;-80
2023/12/19 10:11:42;;;;;;;89.27;83.47;;;;;;;;;;5003111;28;20468;-80
2023/12/19 10:14:10;;;;;;;90.27;83.50;;;;;;;;;;5004158;28;20444;-80
2023/12/19 10:16:40;;;;;;;83.30;77.43;;;;;;;;;;5002621;28;20500;-79
2023/12/19 10:19:08;;;;;;;87.00;81.10;;;;;;;;;;5003276;28;20548;-79
2023/12/19 10:21:36;;;;;;;91.25;85.20;;;;;;;;;;5003451;28;20432;-80
2023/12/19 10:24:12;;;;;;;87.30;81.60;;;;;;;;;;5002385;28;20293;-80
2023/12/19 10:26:39;;;;;;;86.85;81.32;;;;;;;;;;5003034;28;20469;-80
2023/12/19 10:29:06;;;;;;;97.10;90.07;;;;;;;;;;5003036;28;20210;-80
2023/12/19 10:31:35;;;;;;;92.00;86.03;;;;;;;;;;5003250;28;20476;-80
2023/12/19 10:34:02;;;;;;;90.10;84.27;;;;;;;;;;5002704;28;20440;-80
2023/12/19 10:36:30;;;;;;;86.87;81.37;;;;;;;;;;5006927;28;20538;-80
2023/12/19 10:38:58;;;;;;;87.53;82.22;;;;;;;;;;5008488;28;20461;-80
2023/12/19 10:41:27;;;;;;;86.87;81.93;;;;;;;;;;5009056;28;20218;-80
2023/12/19 10:43:56;;;;;;;91.57;86.00;;;;;;;;;;5023477;28;20448;-80
2023/12/19 10:46:25;;;;;;;92.93;87.37;;;;;;;;;;5022640;28;20888;-77
2023/12/19 10:48:53;;;;;;;86.13;81.00;;;;;;;;;;5015005;28;20462;-78
2023/12/19 10:51:24;;;;;;;90.70;85.60;;;;;;;;;;5005315;28;20515;-78
2023/12/19 10:53:58;;;;;;;92.20;86.90;;;;;;;;;;5001235;28;20477;-80
2023/12/19 10:56:31;;;;;;;87.17;81.93;;;;;;;;;;5013406;28;20569;-81
2023/12/19 10:58:59;;;;;;;88.53;83.13;;;;;;;;;;5017894;28;20446;-77
2023/12/19 11:01:27;;;;;;;85.23;79.87;;;;;;;;;;5013016;28;20514;-77
2023/12/19 11:03:55;;;;;;;86.03;80.73;;;;;;;;;;5013816;28;20454;-77
2023/12/19 11:06:23;;;;;;;83.28;78.53;;;;;;;;;;5014417;28;20491;-80
2023/12/19 11:08:51;;;;;;;88.15;82.45;;;;;;;;;;5004983;28;20293;-80
2023/12/19 11:11:20;;;;;;;80.73;75.87;;;;;;;;;;4998496;28;20229;-80
2023/12/19 11:13:50;;;;;;;91.15;84.75;;;;;;;;;;5002532;28;20435;-79
2023/12/19 11:16:21;;;;;;;83.57;78.32;;;;;;;;;;5015573;28;20229;-79
2023/12/19 11:18:51;;;;;;;84.20;79.10;;;;;;;;;;5019291;28;20338;-80
2023/12/19 11:21:20;;;;;;;84.07;78.77;;;;;;;;;;5011606;28;20453;-80
2023/12/19 11:23:51;;;;;;;83.88;78.88;;;;;;;;;;5014992;28;20449;-79
2023/12/19 11:26:21;;;;;;;79.65;75.35;;;;;;;;;;5012858;28;20303;-77
2023/12/19 11:28:50;;;;;;;84.13;79.27;;;;;;;;;;5000700;28;20214;-77
2023/12/19 11:31:30;;;;;;;84.63;79.43;;;;;;;;;;4996028;28;20464;-78
2023/12/19 11:33:57;;;;;;;82.10;77.17;;;;;;;;;;4993023;28;20452;-77
2023/12/19 11:36:24;;;;;;;84.63;79.87;;;;;;;;;;5009990;28;20446;-80
2023/12/19 11:38:51;;;;;;;82.50;77.53;;;;;;;;;;5006108;28;20512;-81
2023/12/19 11:41:33;;;;;;;80.57;76.07;;;;;;;;;;5019962;28;20427;-80
2023/12/19 11:44:01;;;;;;;78.82;74.22;;;;;;;;;;5006434;28;20432;-77
2023/12/19 11:46:27;;;;;;;81.90;77.00;;;;;;;;;;5032337;28;20220;-77
2023/12/19 11:48:55;;;;;;;84.30;78.90;;;;;;;;;;5022238;28;20466;-81
2023/12/19 11:51:41;;;;;;;84.27;79.27;;;;;;;;;;5006406;28;21036;-82
2023/12/19 11:54:10;;;;;;;78.20;73.63;;;;;;;;;;5010702;28;20531;-80
2023/12/19 11:56:37;;;;;;;83.80;78.30;;;;;;;;;;5000151;28;20476;-80
2023/12/19 11:59:06;;;;;;;80.03;75.13;;;;;;;;;;5000792;28;20678;-80
2023/12/19 12:01:38;;;;;;;76.88;71.57;;;;;;;;;;5000987;28;20962;-81
2023/12/19 12:04:06;;;;;;;76.43;71.30;;;;;;;;;;5000012;28;20206;-80
2023/12/19 12:06:33;;;;;;;79.67;74.70;;;;;;;;;;5011296;28;20241;-78
2023/12/19 12:09:02;;;;;;;73.20;68.93;;;;;;;;;;5012149;28;20434;-77
2023/12/19 12:11:29;;;;;;;71.33;66.33;;;;;;;;;;5011025;28;20451;-82
2023/12/19 12:14:03;;;;;;;92.33;86.53;;;;;;;;;;5021588;28;20486;-84
2023/12/19 12:16:38;;;;;;;89.97;84.43;;;;;;;;;;5020860;28;20475;-82
2023/12/19 12:19:11;;;;;;;86.17;80.87;;;;;;;;;;5015842;28;20922;-81
2023/12/19 12:21:44;;;;;;;90.72;85.45;;;;;;;;;;5012284;28;20515;-77
2023/12/19 12:24:17;;;;;;;83.83;79.00;;;;;;;;;;5014828;28;20706;-78
2023/12/19 12:26:44;;;;;;;86.83;81.73;;;;;;;;;;5012199;28;20476;-81
2023/12/19 12:29:11;;;;;;;84.53;79.72;;;;;;;;;;5016029;28;20421;-81
2023/12/19 12:31:40;;;;;;;86.50;81.43;;;;;;;;;;5014996;28;20218;-81
2023/12/19 12:34:07;;;;;;;83.97;79.20;;;;;;;;;;5002779;28;20445;-81
2023/12/19 12:36:34;;;;;;;85.83;80.80;;;;;;;;;;4996402;28;20468;-81
2023/12/19 12:39:02;;;;;;;83.57;79.10;;;;;;;;;;5011963;28;20453;-81
2023/12/19 12:41:30;;;;;;;86.70;81.80;;;;;;;;;;5015709;28;20460;-80
2023/12/19 12:43:57;;;;;;;84.37;79.43;;;;;;;;;;4996041;28;20442;-80
2023/12/19 12:46:25;;;;;;;92.50;87.20;;;;;;;;;;4996461;28;20473;-80
2023/12/19 12:49:03;;;;;;;85.32;80.55;;;;;;;;;;4994783;28;20468;-81
2023/12/19 12:51:30;;;;;;;87.20;82.40;;;;;;;;;;5003562;28;20609;-80
2023/12/19 12:53:58;;;;;;;87.63;82.93;;;;;;;;;;5015604;28;20477;-81
2023/12/19 12:56:29;;;;;;;80.10;75.60;;;;;;;;;;5015228;28;20542;-80
2023/12/19 12:59:00;;;;;;;86.30;81.30;;;;;;;;;;5016122;28;20484;-80
2023/12/19 13:01:27;;;;;;;80.87;76.10;;;;;;;;;;5014597;28;20453;-79
2023/12/19 13:03:54;;;;;;;89.30;84.50;;;;;;;;;;4995264;28;20474;-78
2023/12/19 13:06:22;;;;;;;88.80;83.60;;;;;;;;;;4991666;28;20473;-78
2023/12/19 13:08:49;;;;;;;88.20;83.17;;;;;;;;;;4992821;28;20460;-80
2023/12/19 13:11:17;;;;;;;80.43;76.27;;;;;;;;;;5000232;28;20478;-81
2023/12/19 13:13:44;;;;;;;84.78;80.28;;;;;;;;;;4996421;28;21076;-81
2023/12/19 13:16:11;;;;;;;80.67;76.47;;;;;;;;;;4993228;28;20226;-78
2023/12/19 13:18:38;;;;;;;81.95;77.68;;;;;;;;;;4992122;28;20497;-77
2023/12/19 13:21:05;;;;;;;88.30;83.50;;;;;;;;;;4990791;28;20284;-81
2023/12/19 13:23:34;;;;;;;82.73;78.37;;;;;;;;;;4996826;28;20424;-81
2023/12/19 13:26:02;;;;;;;80.97;76.30;;;;;;;;;;4995853;28;20532;-80
2023/12/19 13:28:29;;;;;;;85.22;80.72;;;;;;;;;;4998676;28;20457;-81
2023/12/19 13:30:57;;;;;;;81.87;77.47;;;;;;;;;;5015292;28;20701;-82
2023/12/19 13:33:24;;;;;;;78.17;73.97;;;;;;;;;;4994988;28;20547;-77
2023/12/19 13:35:51;;;;;;;70.70;66.80;;;;;;;;;;4991336;28;20478;-77
2023/12/19 13:38:18;;;;;;;75.70;71.68;;;;;;;;;;4991276;28;20477;-77
2023/12/19 13:40:47;;;;;;;78.07;74.07;;;;;;;;;;4993655;28;20296;-78
2023/12/19 13:43:14;;;;;;;73.28;69.47;;;;;;;;;;4997068;28;20453;-79
2023/12/19 13:45:41;;;;;;;77.07;72.77;;;;;;;;;;4996931;28;20569;-79
2023/12/19 13:48:08;;;;;;;77.93;73.73;;;;;;;;;;4995365;28;20416;-76
2023/12/19 13:50:36;;;;;;;76.57;72.37;;;;;;;;;;4994596;28;20458;-77
2023/12/19 13:53:03;;;;;;;72.55;68.35;;;;;;;;;;4994848;28;20490;-77
2023/12/19 13:55:30;;;;;;;80.60;76.50;;;;;;;;;;4996446;28;20285;-78
2023/12/19 13:57:58;;;;;;;80.63;76.23;;;;;;;;;;4995401;28;20527;-78
2023/12/19 14:00:25;;;;;;;80.67;76.27;;;;;;;;;;5008767;28;20427;-78
2023/12/19 14:02:52;;;;;;;88.23;83.20;;;;;;;;;;5014575;28;20437;-79
2023/12/19 14:05:19;;;;;;;85.80;80.63;;;;;;;;;;5016239;28;20436;-79
2023/12/19 14:07:46;;;;;;;82.32;77.88;;;;;;;;;;5020950;28;20460;-78
2023/12/19 14:10:14;;;;;;;83.72;79.13;;;;;;;;;;5019952;28;20237;-80
2023/12/19 14:12:43;;;;;;;82.07;77.47;;;;;;;;;;4999495;28;20693;-82
2023/12/19 14:15:14;;;;;;;75.13;71.03;;;;;;;;;;4999280;28;20511;-79
2023/12/19 14:17:42;;;;;;;82.10;78.00;;;;;;;;;;4998722;28;21008;-81
2023/12/19 14:20:11;;;;;;;79.37;75.07;;;;;;;;;;4998690;28;20449;-80